Time;durP1;ratioP1;P1;durP2;ratioP2;P2;SDS_P1;SDS_P2;PMS_P1;PMS_P2;Temp;Humidity;BMP_temperature;BMP_pressure;BME280_temperature;BME280_humidity;BME280_pressure;Samples;Min_cycle;Max_cycle;Signal;HPM_P1;HPM_P2
2024/04/16 00:01:21;;;;;;;0.35;0.10;;;;;;;18.67;62.36;98808.69;5323949;26;33941;-83
2024/04/16 00:03:48;;;;;;;0.10;0.10;;;;;;;18.31;63.67;98820.09;5287743;26;32876;-82
2024/04/16 00:06:15;;;;;;;0.15;0.15;;;;;;;18.33;63.78;98826.16;5324126;26;32728;-81
2024/04/16 00:08:42;;;;;;;0.35;0.35;;;;;;;18.66;62.64;98809.69;5287461;26;33448;-81
2024/04/16 00:11:09;;;;;;;0.10;0.10;;;;;;;18.27;64.01;98826.69;5305917;26;32964;-81
2024/04/16 00:13:36;;;;;;;0.65;0.43;;;;;;;18.14;65.01;98822.47;5324594;26;34541;-81
2024/04/16 00:16:05;;;;;;;0.08;0.08;;;;;;;18.61;63.37;98806.59;5287931;26;32321;-81
2024/04/16 00:18:31;;;;;;;0.20;0.20;;;;;;;18.38;63.64;98808.72;5305854;26;33205;-81
2024/04/16 00:20:58;;;;;;;0.00;0.00;;;;;;;18.21;64.94;98811.22;5305695;26;32826;-81
2024/04/16 00:23:25;;;;;;;0.10;0.10;;;;;;;18.51;64.19;98795.03;5324046;26;34577;-81
2024/04/16 00:25:51;;;;;;;0.00;0.00;;;;;;;18.43;63.82;98800.28;5305470;26;33342;-82
2024/04/16 00:28:18;;;;;;;1.48;0.37;;;;;;;18.14;65.10;98810.97;5287124;26;32977;-81
2024/04/16 00:30:44;;;;;;;0.10;0.10;;;;;;;18.05;65.86;98809.12;5305706;26;33941;-81
2024/04/16 00:33:11;;;;;;;0.22;0.22;;;;;;;18.05;65.95;98804.63;5305419;26;34179;-81
2024/04/16 00:35:38;;;;;;;0.30;0.30;;;;;;;18.13;65.43;98801.22;5324307;26;33802;-81
2024/04/16 00:38:04;;;;;;;0.10;0.10;;;;;;;18.11;65.94;98806.72;5323806;26;32431;-82
2024/04/16 00:40:31;;;;;;;0.75;0.65;;;;;;;18.13;65.84;98818.09;5324337;26;33836;-81
2024/04/16 00:42:58;;;;;;;1.05;0.30;;;;;;;18.14;65.77;98824.31;5305595;26;32531;-81
2024/04/16 00:45:26;;;;;;;1.37;0.65;;;;;;;18.63;63.67;98812.63;5305526;26;33863;-81
2024/04/16 00:47:53;;;;;;;0.00;0.00;;;;;;;18.75;63.01;98804.47;5305549;26;32625;-81
2024/04/16 00:50:20;;;;;;;0.00;0.00;;;;;;;18.40;64.07;98803.22;5305226;26;33696;-81
2024/04/16 00:52:46;;;;;;;0.35;0.35;;;;;;;18.22;64.70;98810.25;5305702;26;33881;-82
2024/04/16 00:55:13;;;;;;;0.00;0.00;;;;;;;18.20;64.67;98814.91;5323674;26;33643;-82
2024/04/16 00:57:40;;;;;;;0.43;0.35;;;;;;;18.23;64.91;98811.91;5305135;26;34606;-82
2024/04/16 01:00:08;;;;;;;0.10;0.10;;;;;;;18.26;64.98;98827.69;5305969;26;33964;-82
2024/04/16 01:02:35;;;;;;;0.40;0.40;;;;;;;18.21;64.94;98817.41;5305086;26;31969;-82
2024/04/16 01:05:01;;;;;;;0.25;0.25;;;;;;;18.24;64.54;98802.94;5323917;26;32307;-82
2024/04/16 01:07:28;;;;;;;0.20;0.20;;;;;;;18.36;63.90;98797.31;5305556;26;34548;-82
2024/04/16 01:09:55;;;;;;;0.10;0.10;;;;;;;18.04;64.91;98802.94;5305454;26;33982;-82
2024/04/16 01:12:21;;;;;;;0.22;0.22;;;;;;;18.00;65.35;98806.84;5323768;26;33985;-82
2024/04/16 01:14:48;;;;;;;0.10;0.10;;;;;;;18.42;63.85;98785.22;5287595;26;32627;-82
2024/04/16 01:17:15;;;;;;;0.10;0.10;;;;;;;18.61;62.97;98779.88;5286078;26;34608;-82
2024/04/16 01:19:41;;;;;;;0.30;0.30;;;;;;;18.24;64.00;98778.91;5323481;26;34821;-82
2024/04/16 01:22:10;;;;;;;0.30;0.30;;;;;;;17.96;65.47;98784.06;5305808;26;33866;-82
2024/04/16 01:24:36;;;;;;;0.10;0.10;;;;;;;17.80;66.07;98789.97;5287542;26;34718;-82
2024/04/16 01:27:04;;;;;;;1.45;0.15;;;;;;;17.76;66.78;98790.38;5305340;26;33782;-82
2024/04/16 01:29:30;;;;;;;0.05;0.05;;;;;;;17.94;66.15;98791.38;5305297;26;33985;-82
2024/04/16 01:31:57;;;;;;;0.10;0.10;;;;;;;17.91;66.41;98797.00;5305279;26;35056;-82
2024/04/16 01:34:23;;;;;;;2.40;1.90;;;;;;;17.84;66.87;98803.84;5305816;26;34160;-82
2024/04/16 01:36:50;;;;;;;0.52;0.40;;;;;;;17.91;66.84;98808.53;5323915;26;33867;-81
2024/04/16 01:39:17;;;;;;;0.17;0.08;;;;;;;18.20;65.41;98810.38;5305477;26;35005;-81
2024/04/16 01:41:43;;;;;;;0.00;0.00;;;;;;;18.15;65.10;98810.81;5305380;26;33848;-82
2024/04/16 01:44:09;;;;;;;0.75;0.20;;;;;;;17.98;65.05;98802.63;5304793;26;33444;-82
2024/04/16 01:46:36;;;;;;;0.00;0.00;;;;;;;17.67;66.73;98811.53;5323541;26;34605;-81
2024/04/16 01:49:03;;;;;;;0.00;0.00;;;;;;;17.81;66.42;98805.00;5323948;26;33988;-82
2024/04/16 01:51:29;;;;;;;0.08;0.08;;;;;;;17.95;64.73;98793.06;5323967;26;34262;-82
2024/04/16 01:53:56;;;;;;;0.47;0.43;;;;;;;17.96;64.71;98792.09;5305462;26;34318;-82
2024/04/16 01:56:23;;;;;;;0.05;0.05;;;;;;;17.79;65.52;98785.56;5305428;26;33954;-82
2024/04/16 01:58:50;;;;;;;1.00;0.30;;;;;;;17.75;65.99;98786.00;5324085;26;33925;-82
2024/04/16 02:01:18;;;;;;;0.00;0.00;;;;;;;17.78;65.76;98785.72;5305640;26;33975;-82
2024/04/16 02:03:44;;;;;;;0.05;0.05;;;;;;;17.76;65.16;98761.00;5305332;26;32726;-82
2024/04/16 02:06:11;;;;;;;0.80;0.45;;;;;;;17.87;64.08;98747.50;5305222;26;33946;-82
2024/04/16 02:08:37;;;;;;;0.10;0.10;;;;;;;17.86;63.99;98743.16;5323693;26;34158;-82
2024/04/16 02:11:05;;;;;;;0.30;0.30;;;;;;;17.75;64.27;98743.28;5287055;26;34855;-82
2024/04/16 02:13:31;;;;;;;0.10;0.00;;;;;;;17.59;64.81;98749.97;5286703;26;32336;-82
2024/04/16 02:15:58;;;;;;;0.00;0.00;;;;;;;17.60;65.26;98746.31;5305351;26;34628;-82
2024/04/16 02:18:25;;;;;;;0.30;0.30;;;;;;;17.74;65.12;98752.28;5305713;26;35011;-82
2024/04/16 02:20:51;;;;;;;0.00;0.00;;;;;;;17.69;65.38;98757.16;5286797;26;34357;-82
2024/04/16 02:23:18;;;;;;;0.20;0.20;;;;;;;17.72;65.35;98764.88;5305098;26;33674;-82
2024/04/16 02:25:49;;;;;;;0.15;0.15;;;;;;;17.77;65.34;98757.34;5287003;26;35439;-82
2024/04/16 02:28:15;;;;;;;0.00;0.00;;;;;;;17.80;64.95;98751.69;5305351;26;34480;-82
2024/04/16 02:30:42;;;;;;;0.00;0.00;;;;;;;17.64;65.74;98747.72;5305173;26;33135;-82
2024/04/16 02:33:10;;;;;;;0.20;0.20;;;;;;;17.66;65.68;98743.09;5305444;26;34323;-82
2024/04/16 02:35:37;;;;;;;0.37;0.37;;;;;;;17.69;64.90;98743.78;5323701;26;33546;-82
2024/04/16 02:38:03;;;;;;;0.30;0.30;;;;;;;17.50;66.04;98745.44;5323384;26;34062;-82
2024/04/16 02:40:30;;;;;;;0.43;0.43;;;;;;;17.56;65.79;98744.88;5286689;26;35409;-81
2024/04/16 02:42:57;;;;;;;1.45;0.65;;;;;;;17.97;63.78;98732.34;5304222;26;33320;-82
2024/04/16 02:45:23;;;;;;;0.00;0.00;;;;;;;17.72;64.69;98738.19;5305095;26;33967;-82
2024/04/16 02:47:50;;;;;;;9.32;0.45;;;;;;;17.71;64.85;98736.47;5305572;26;34404;-82
2024/04/16 02:50:17;;;;;;;0.17;0.08;;;;;;;17.50;65.20;98740.09;5305102;26;33403;-82
2024/04/16 02:52:43;;;;;;;0.43;0.10;;;;;;;17.52;65.17;98737.28;5304873;26;31989;-82
2024/04/16 02:55:11;;;;;;;0.05;0.05;;;;;;;17.54;64.93;98733.50;5286841;26;34078;-82
2024/04/16 02:57:37;;;;;;;1.33;1.23;;;;;;;17.01;66.44;98747.09;5323294;26;34919;-82
2024/04/16 03:00:05;;;;;;;0.20;0.20;;;;;;;17.19;65.66;98751.81;5323730;26;34564;-82
2024/04/16 03:02:31;;;;;;;0.05;0.05;;;;;;;17.54;63.85;98738.84;5305425;26;33214;-81
2024/04/16 03:04:58;;;;;;;0.00;0.00;;;;;;;17.33;64.08;98733.59;5304968;26;33703;-82
2024/04/16 03:07:24;;;;;;;0.70;0.25;;;;;;;17.20;64.87;98733.00;5304772;26;32613;-81
2024/04/16 03:09:51;;;;;;;1.15;0.37;;;;;;;17.10;64.20;98735.63;5305028;26;34645;-82
2024/04/16 03:12:20;;;;;;;0.10;0.10;;;;;;;16.89;65.57;98735.66;5286877;26;33140;-83
2024/04/16 03:14:46;;;;;;;0.20;0.20;;;;;;;16.95;65.00;98728.97;5304796;26;33452;-83
2024/04/16 03:17:13;;;;;;;2.25;0.30;;;;;;;17.09;63.76;98731.28;5286774;26;34982;-83
2024/04/16 03:19:39;;;;;;;0.00;0.00;;;;;;;16.87;64.21;98734.13;5305006;26;33088;-83
2024/04/16 03:22:06;;;;;;;0.00;0.00;;;;;;;16.87;64.68;98732.28;5286641;26;32614;-83
2024/04/16 03:24:33;;;;;;;0.10;0.10;;;;;;;17.00;64.00;98736.56;5304781;26;32959;-83
2024/04/16 03:26:59;;;;;;;1.20;0.35;;;;;;;16.90;64.77;98739.16;5286522;26;33350;-83
2024/04/16 03:29:26;;;;;;;0.10;0.10;;;;;;;17.17;63.12;98733.25;5323260;26;31970;-83
2024/04/16 03:31:53;;;;;;;0.35;0.10;;;;;;;16.79;64.20;98729.44;5304693;26;33896;-83
2024/04/16 03:34:19;;;;;;;0.00;0.00;;;;;;;16.96;63.26;98737.81;5343069;26;34093;-83
2024/04/16 03:36:46;;;;;;;0.80;0.30;;;;;;;16.96;63.40;98735.16;5304797;26;34682;-82
2024/04/16 03:39:13;;;;;;;0.47;0.47;;;;;;;17.02;63.10;98746.09;5286599;26;34923;-82
2024/04/16 03:41:39;;;;;;;0.00;0.00;;;;;;;17.28;62.34;98740.31;5305842;26;31974;-80
2024/04/16 03:44:06;;;;;;;0.55;0.55;;;;;;;17.09;63.16;98743.75;5305675;26;34031;-80
2024/04/16 03:46:32;;;;;;;0.00;0.00;;;;;;;17.20;62.13;98737.50;5287746;26;32978;-80
2024/04/16 03:48:59;;;;;;;0.00;0.00;;;;;;;17.03;63.09;98736.28;5305261;26;31929;-80
2024/04/16 03:51:25;;;;;;;0.47;0.15;;;;;;;16.80;63.55;98741.78;5324393;26;33450;-81
2024/04/16 03:53:52;;;;;;;0.00;0.00;;;;;;;16.80;63.69;98739.12;5306479;26;34132;-82
2024/04/16 03:56:19;;;;;;;0.00;0.00;;;;;;;17.12;61.74;98746.16;5305663;26;32937;-81
2024/04/16 03:59:04;;;;;;;0.13;0.13;;;;;;;16.96;62.44;98744.00;5305722;26;32405;-81
2024/04/16 04:01:32;;;;;;;0.65;0.57;;;;;;;16.83;62.59;98741.53;5272952;26;32596;-81
2024/04/16 04:03:59;;;;;;;2.47;0.52;;;;;;;16.60;63.34;98746.13;5287275;26;33027;-81
2024/04/16 04:06:25;;;;;;;0.00;0.00;;;;;;;16.73;63.74;98753.13;5287816;26;33384;-81
2024/04/16 04:08:52;;;;;;;0.10;0.10;;;;;;;16.82;62.87;98760.34;5305884;26;33437;-81
2024/04/16 04:11:19;;;;;;;0.15;0.13;;;;;;;16.79;62.71;98765.91;5324700;26;34058;-81
2024/04/16 04:13:45;;;;;;;0.20;0.10;;;;;;;16.63;62.90;98761.88;5306093;26;33807;-82
2024/04/16 04:16:14;;;;;;;0.00;0.00;;;;;;;16.34;64.67;98760.81;5305181;26;33916;-82
2024/04/16 04:18:40;;;;;;;0.20;0.20;;;;;;;16.16;66.17;98765.87;5305361;26;32688;-82
2024/04/16 04:21:07;;;;;;;0.05;0.05;;;;;;;16.45;64.67;98763.41;5323900;26;33307;-82
2024/04/16 04:23:33;;;;;;;0.00;0.00;;;;;;;16.20;65.90;98763.78;5324084;26;33512;-82
2024/04/16 04:26:00;;;;;;;0.00;0.00;;;;;;;16.22;65.76;98767.16;5323899;26;34781;-82
2024/04/16 04:28:27;;;;;;;0.37;0.30;;;;;;;16.19;65.88;98764.75;5305817;26;33946;-82
2024/04/16 04:30:53;;;;;;;0.98;0.75;;;;;;;16.18;65.65;98771.06;5305577;26;31952;-82
2024/04/16 04:33:20;;;;;;;1.08;0.80;;;;;;;16.22;65.41;98756.50;5305472;26;34872;-82
2024/04/16 04:35:47;;;;;;;7.22;0.68;;;;;;;16.23;65.63;98752.88;5287343;26;32864;-82
2024/04/16 04:38:13;;;;;;;1.20;1.10;;;;;;;16.29;64.47;98757.72;5323886;26;33892;-82
2024/04/16 04:40:40;;;;;;;0.00;0.00;;;;;;;16.20;64.96;98763.78;5287283;26;32384;-81
2024/04/16 04:43:06;;;;;;;0.28;0.10;;;;;;;16.70;62.55;98766.66;5305561;26;32397;-81
2024/04/16 04:45:33;;;;;;;0.65;0.65;;;;;;;16.53;62.60;98755.62;5323713;26;33631;-81
2024/04/16 04:48:00;;;;;;;0.00;0.00;;;;;;;16.62;62.08;98757.53;5287492;26;34054;-81
2024/04/16 04:50:27;;;;;;;0.00;0.00;;;;;;;16.44;62.61;98755.56;5324434;26;33021;-81
2024/04/16 04:52:53;;;;;;;0.10;0.10;;;;;;;16.33;63.61;98759.09;5305520;26;33100;-82
2024/04/16 04:55:20;;;;;;;0.03;0.03;;;;;;;16.38;63.48;98768.44;5287114;26;35228;-82
2024/04/16 04:57:47;;;;;;;0.00;0.00;;;;;;;16.24;63.74;98770.56;5305650;26;33728;-81
2024/04/16 05:00:13;;;;;;;0.20;0.20;;;;;;;16.37;63.87;98768.53;5324440;26;33498;-80
2024/04/16 05:02:40;;;;;;;0.03;0.00;;;;;;;16.17;64.02;98780.03;5305095;26;32564;-81
2024/04/16 05:05:07;;;;;;;0.00;0.00;;;;;;;16.23;64.67;98771.50;5303548;26;33519;-80
2024/04/16 05:07:34;;;;;;;0.10;0.10;;;;;;;16.45;63.87;98775.91;5323858;26;34095;-81
2024/04/16 05:10:01;;;;;;;0.00;0.00;;;;;;;16.51;63.64;98773.56;5305410;26;31881;-81
2024/04/16 05:12:29;;;;;;;0.00;0.00;;;;;;;16.41;63.73;98769.13;5305686;26;33017;-82
2024/04/16 05:14:56;;;;;;;0.05;0.05;;;;;;;16.38;62.96;98781.75;5305465;26;34019;-82
2024/04/16 05:17:23;;;;;;;0.00;0.00;;;;;;;16.05;63.00;98772.09;5343407;26;33816;-82
2024/04/16 05:19:50;;;;;;;0.00;0.00;;;;;;;15.83;63.79;98777.47;5322296;26;34038;-82
2024/04/16 05:22:16;;;;;;;0.00;0.00;;;;;;;15.47;63.82;98786.56;5305390;26;34283;-82
2024/04/16 05:24:43;;;;;;;0.05;0.00;;;;;;;15.37;63.49;98799.75;5305324;26;34123;-82
2024/04/16 05:27:10;;;;;;;0.00;0.00;;;;;;;14.85;65.54;98825.94;5305000;26;34559;-83
2024/04/16 05:29:36;;;;;;;0.22;0.22;;;;;;;14.80;64.40;98824.59;5286905;26;32681;-82
2024/04/16 05:32:08;;;;;;;0.15;0.15;;;;;;;15.01;62.76;98812.31;5286243;26;35074;-82
2024/04/16 05:34:34;;;;;;;0.00;0.00;;;;;;;14.86;62.45;98818.84;5305605;26;32628;-82
2024/04/16 05:37:01;;;;;;;0.00;0.00;;;;;;;14.67;62.10;98807.88;5286814;26;32780;-83
2024/04/16 05:39:28;;;;;;;0.00;0.00;;;;;;;14.50;63.75;98811.84;5287928;26;33911;-83
2024/04/16 05:41:55;;;;;;;0.00;0.00;;;;;;;14.78;61.96;98813.25;5286485;26;33582;-83
2024/04/16 05:44:22;;;;;;;0.10;0.10;;;;;;;14.36;63.99;98815.50;5343516;26;34700;-83
2024/04/16 05:46:50;;;;;;;0.00;0.00;;;;;;;14.76;62.75;98823.97;5286847;26;33456;-83
2024/04/16 05:49:16;;;;;;;0.00;0.00;;;;;;;14.87;62.16;98820.53;5305231;26;31986;-82
2024/04/16 05:51:43;;;;;;;0.17;0.17;;;;;;;14.90;62.14;98811.44;5286702;26;32702;-83
2024/04/16 05:54:10;;;;;;;0.00;0.00;;;;;;;14.99;61.95;98813.41;5287438;26;32992;-82
2024/04/16 05:56:36;;;;;;;0.00;0.00;;;;;;;14.94;61.97;98819.06;5287053;26;32514;-81
2024/04/16 05:59:03;;;;;;;0.00;0.00;;;;;;;14.96;61.98;98817.16;5305331;26;32497;-82
2024/04/16 06:01:30;;;;;;;0.40;0.20;;;;;;;14.88;61.84;98822.22;5305240;26;33871;-82
2024/04/16 06:03:57;;;;;;;0.00;0.00;;;;;;;14.66;64.29;98823.00;5286977;26;32743;-82
2024/04/16 06:06:24;;;;;;;0.00;0.00;;;;;;;14.89;62.71;98812.41;5322886;26;33363;-82
2024/04/16 06:08:50;;;;;;;0.00;0.00;;;;;;;14.93;62.81;98814.72;5305695;26;33181;-82
2024/04/16 06:11:17;;;;;;;0.10;0.10;;;;;;;14.67;63.19;98816.75;5305373;26;33384;-82
2024/04/16 06:13:44;;;;;;;0.00;0.00;;;;;;;14.70;62.07;98820.94;5322351;26;33614;-82
2024/04/16 06:16:10;;;;;;;0.00;0.00;;;;;;;14.79;61.87;98828.22;5323703;26;33789;-82
2024/04/16 06:18:37;;;;;;;0.03;0.03;;;;;;;14.65;62.80;98825.78;5269031;26;34347;-82
2024/04/16 06:21:04;;;;;;;0.00;0.00;;;;;;;14.75;62.48;98816.97;5304785;26;33636;-82
2024/04/16 06:23:30;;;;;;;0.00;0.00;;;;;;;14.56;63.71;98816.69;5322665;26;35003;-82
2024/04/16 06:25:57;;;;;;;0.00;0.00;;;;;;;14.57;63.45;98819.25;5305358;26;34311;-82
2024/04/16 06:28:24;;;;;;;0.00;0.00;;;;;;;14.06;65.20;98815.97;5305123;26;33129;-82
2024/04/16 06:30:51;;;;;;;0.00;0.00;;;;;;;14.05;65.43;98827.53;5305732;26;33604;-82
2024/04/16 06:33:18;;;;;;;0.10;0.10;;;;;;;14.28;64.71;98818.72;5324020;26;32669;-82
2024/04/16 06:35:45;;;;;;;0.13;0.13;;;;;;;13.95;66.12;98815.91;5323762;26;34184;-82
2024/04/16 06:38:11;;;;;;;0.00;0.00;;;;;;;14.32;64.47;98814.03;5286957;26;31658;-82
2024/04/16 06:40:39;;;;;;;1.48;0.60;;;;;;;14.34;64.58;98807.66;5323605;26;33792;-82
2024/04/16 06:43:05;;;;;;;0.00;0.00;;;;;;;13.61;67.76;98810.38;5305387;26;33423;-82
2024/04/16 06:45:32;;;;;;;0.10;0.00;;;;;;;13.86;67.16;98804.16;5287248;26;32714;-82
2024/04/16 06:47:58;;;;;;;0.35;0.35;;;;;;;14.18;65.88;98804.44;5323740;26;33156;-82
2024/04/16 06:50:25;;;;;;;0.00;0.00;;;;;;;13.91;66.42;98803.81;5304850;26;33744;-82
2024/04/16 06:52:54;;;;;;;0.00;0.00;;;;;;;13.57;67.84;98795.66;5304780;26;33907;-82
2024/04/16 06:55:21;;;;;;;0.00;0.00;;;;;;;13.74;67.40;98792.62;5306251;26;33451;-82
2024/04/16 06:57:48;;;;;;;0.00;0.00;;;;;;;13.79;66.58;98787.00;5323471;26;33464;-82
2024/04/16 07:00:15;;;;;;;0.00;0.00;;;;;;;13.71;66.97;98800.81;5323539;26;34411;-82
2024/04/16 07:02:41;;;;;;;0.05;0.00;;;;;;;14.04;65.13;98801.97;5304913;26;34035;-82
2024/04/16 07:05:10;;;;;;;0.00;0.00;;;;;;;14.08;65.02;98811.37;5323345;26;33613;-82
2024/04/16 07:07:36;;;;;;;0.00;0.00;;;;;;;13.98;65.18;98816.53;5305241;26;33179;-82
2024/04/16 07:10:03;;;;;;;0.00;0.00;;;;;;;13.96;65.05;98818.47;5305305;26;32651;-82
2024/04/16 07:12:29;;;;;;;0.10;0.10;;;;;;;13.99;64.74;98828.84;5323692;26;34710;-82
2024/04/16 07:14:56;;;;;;;0.05;0.05;;;;;;;13.72;65.76;98837.00;5323299;26;33125;-82
2024/04/16 07:17:23;;;;;;;0.32;0.20;;;;;;;13.99;64.72;98834.13;5305823;26;33467;-82
2024/04/16 07:19:49;;;;;;;0.00;0.00;;;;;;;13.76;65.86;98833.16;5306012;26;33234;-83
2024/04/16 07:22:15;;;;;;;0.00;0.00;;;;;;;13.63;66.61;98842.13;5324267;26;33827;-82
2024/04/16 07:24:42;;;;;;;0.45;0.37;;;;;;;13.52;67.46;98851.66;5324665;26;34726;-82
2024/04/16 07:27:09;;;;;;;0.00;0.00;;;;;;;13.64;66.11;98849.13;5324337;26;33279;-82
2024/04/16 07:29:35;;;;;;;0.10;0.10;;;;;;;13.49;64.40;98849.25;5305942;26;34059;-82
2024/04/16 07:32:02;;;;;;;0.00;0.00;;;;;;;13.32;65.12;98857.53;5306174;26;33890;-82
2024/04/16 07:34:29;;;;;;;0.00;0.00;;;;;;;13.18;65.89;98849.66;5305171;26;34142;-82
2024/04/16 07:36:55;;;;;;;0.00;0.00;;;;;;;13.27;65.31;98852.56;5324654;26;33584;-83
2024/04/16 07:39:22;;;;;;;0.00;0.00;;;;;;;13.02;66.35;98863.97;5306333;26;34266;-83
2024/04/16 07:41:49;;;;;;;0.00;0.00;;;;;;;12.35;69.28;98879.09;5324654;26;33625;-83
2024/04/16 07:44:17;;;;;;;0.00;0.00;;;;;;;12.94;65.75;98882.19;5287491;26;32778;-82
2024/04/16 07:46:44;;;;;;;0.00;0.00;;;;;;;12.65;66.34;98888.63;5287948;26;34029;-82
2024/04/16 07:49:10;;;;;;;1.10;0.75;;;;;;;12.71;64.62;98889.03;5324405;26;34029;-82
2024/04/16 07:51:36;;;;;;;0.00;0.00;;;;;;;12.54;65.85;98882.25;5324231;26;33968;-82
2024/04/16 07:54:03;;;;;;;0.00;0.00;;;;;;;12.32;66.90;98889.03;5306308;26;32619;-82
2024/04/16 07:56:30;;;;;;;0.00;0.00;;;;;;;12.36;67.61;98888.75;5287307;26;32295;-82
2024/04/16 07:58:56;;;;;;;0.25;0.10;;;;;;;12.85;64.58;98888.13;5324409;26;34026;-82
2024/04/16 08:01:23;;;;;;;0.00;0.00;;;;;;;12.77;64.45;98886.00;5287977;26;34978;-82
2024/04/16 08:03:50;;;;;;;0.62;0.25;;;;;;;12.81;64.67;98882.16;5324248;26;34435;-83
2024/04/16 08:06:16;;;;;;;2.20;0.80;;;;;;;12.93;63.48;98877.84;5306063;26;33559;-83
2024/04/16 08:08:43;;;;;;;0.00;0.00;;;;;;;12.59;63.32;98879.28;5305458;26;34167;-83
2024/04/16 08:11:12;;;;;;;0.00;0.00;;;;;;;12.77;63.89;98887.78;5287405;26;34878;-83
2024/04/16 08:13:39;;;;;;;0.00;0.00;;;;;;;12.82;63.00;98891.00;5324164;26;33425;-83
2024/04/16 08:16:06;;;;;;;0.00;0.00;;;;;;;12.25;65.25;98894.75;5324439;26;32737;-83
2024/04/16 08:18:33;;;;;;;0.00;0.00;;;;;;;12.36;61.89;98880.81;5306047;26;32708;-83
2024/04/16 08:20:59;;;;;;;0.00;0.00;;;;;;;12.36;61.61;98904.63;5287246;26;32582;-82
2024/04/16 08:23:27;;;;;;;0.00;0.00;;;;;;;12.28;63.03;98909.56;5305888;26;33927;-83
2024/04/16 08:26:01;;;;;;;0.32;0.32;;;;;;;12.25;62.60;98899.19;5322335;26;32935;-83
2024/04/16 08:28:30;;;;;;;0.00;0.00;;;;;;;12.18;63.67;98897.88;5287172;26;32389;-83
2024/04/16 08:30:58;;;;;;;0.00;0.00;;;;;;;12.10;63.71;98894.88;5305233;26;32592;-83
2024/04/16 08:33:24;;;;;;;0.00;0.00;;;;;;;12.43;61.97;98897.97;5323754;26;33880;-83
2024/04/16 08:35:52;;;;;;;0.00;0.00;;;;;;;12.12;63.58;98908.88;5305457;26;33361;-82
2024/04/16 08:38:19;;;;;;;0.00;0.00;;;;;;;12.36;62.63;98904.63;5287291;26;32906;-82
2024/04/16 08:40:47;;;;;;;0.10;0.10;;;;;;;12.08;64.58;98908.19;5305558;26;33271;-82
2024/04/16 08:43:14;;;;;;;0.10;0.10;;;;;;;11.88;64.98;98922.69;5286206;26;32764;-83
2024/04/16 08:45:42;;;;;;;0.00;0.00;;;;;;;12.16;63.47;98916.50;5306024;26;32884;-82
2024/04/16 08:48:09;;;;;;;1.27;0.20;;;;;;;12.05;64.12;98925.09;5306109;26;34044;-81
2024/04/16 08:50:36;;;;;;;0.20;0.17;;;;;;;12.24;63.85;98939.81;5305555;26;32516;-81
2024/04/16 08:53:03;;;;;;;0.45;0.22;;;;;;;12.02;63.57;98951.78;5287786;26;33390;-80
2024/04/16 08:55:32;;;;;;;0.00;0.00;;;;;;;11.94;64.84;98964.63;5287595;26;31854;-81
2024/04/16 08:57:59;;;;;;;0.00;0.00;;;;;;;11.66;64.74;98981.31;5305923;26;33823;-81
2024/04/16 09:00:26;;;;;;;0.00;0.00;;;;;;;11.71;65.16;98988.97;5286521;26;32863;-81
2024/04/16 09:02:52;;;;;;;0.00;0.00;;;;;;;11.03;67.78;99002.72;5286796;26;32810;-81
2024/04/16 09:05:19;;;;;;;0.00;0.00;;;;;;;11.58;65.24;99009.16;5302543;26;33415;-80
2024/04/16 09:07:46;;;;;;;0.00;0.00;;;;;;;11.01;64.90;99010.75;5286572;26;34322;-80
2024/04/16 09:10:21;;;;;;;0.00;0.00;;;;;;;11.17;61.51;98994.84;5305060;26;34171;-80
2024/04/16 09:12:48;;;;;;;0.00;0.00;;;;;;;10.90;62.99;99012.31;5323449;26;34443;-81
2024/04/16 09:15:17;;;;;;;0.00;0.00;;;;;;;11.11;61.92;99015.47;5323676;26;33503;-80
2024/04/16 09:17:47;;;;;;;0.00;0.00;;;;;;;11.21;61.73;99019.31;5304262;26;33910;-81
2024/04/16 09:20:19;;;;;;;0.00;0.00;;;;;;;10.87;64.07;99030.97;5305353;26;33739;-80
2024/04/16 09:22:47;;;;;;;0.00;0.00;;;;;;;11.10;62.73;99035.78;5287002;26;33389;-81
2024/04/16 09:25:18;;;;;;;0.00;0.00;;;;;;;11.32;62.25;99035.38;5286741;26;33129;-80
2024/04/16 09:27:48;;;;;;;0.00;0.00;;;;;;;11.10;61.86;99038.41;5304746;26;32841;-81
2024/04/16 09:30:16;;;;;;;0.00;0.00;;;;;;;11.18;61.74;99037.97;5268569;26;33206;-81
2024/04/16 09:32:45;;;;;;;0.00;0.00;;;;;;;10.96;63.22;99044.47;5323638;26;34486;-80
2024/04/16 09:35:11;;;;;;;0.00;0.00;;;;;;;10.98;62.39;99042.63;5304262;26;33659;-80
2024/04/16 09:37:38;;;;;;;0.20;0.20;;;;;;;11.19;60.83;99035.22;5286447;26;33863;-80
2024/04/16 09:40:07;;;;;;;0.05;0.05;;;;;;;11.11;62.06;99041.91;5323293;26;34077;-80
2024/04/16 09:42:36;;;;;;;0.00;0.00;;;;;;;10.84;64.01;99037.28;5323356;26;33875;-80
2024/04/16 09:45:04;;;;;;;0.00;0.00;;;;;;;10.99;61.58;99039.03;5305067;26;33635;-80
2024/04/16 09:47:31;;;;;;;0.08;0.08;;;;;;;10.72;63.38;99045.88;5305189;26;34658;-80
2024/04/16 09:49:57;;;;;;;0.00;0.00;;;;;;;10.90;61.95;99029.00;5303957;26;34037;-81
2024/04/16 09:52:25;;;;;;;0.00;0.00;;;;;;;11.00;61.57;99027.53;5287508;26;32645;-80
2024/04/16 09:54:52;;;;;;;0.00;0.00;;;;;;;10.69;61.79;99044.28;5323664;26;33824;-80
2024/04/16 09:57:19;;;;;;;0.15;0.15;;;;;;;10.62;62.82;99047.34;5286476;26;32659;-80
2024/04/16 09:59:50;;;;;;;0.00;0.00;;;;;;;10.88;61.63;99035.31;5286923;26;33285;-80
2024/04/16 10:02:17;;;;;;;0.00;0.00;;;;;;;10.44;63.79;99039.53;5323892;26;33842;-81
2024/04/16 10:04:44;;;;;;;0.00;0.00;;;;;;;10.72;62.11;99038.81;5287087;26;33875;-80
2024/04/16 10:07:11;;;;;;;0.00;0.00;;;;;;;10.56;63.85;99055.59;5305537;26;33623;-80
2024/04/16 10:09:40;;;;;;;0.00;0.00;;;;;;;10.72;62.94;99067.00;5323634;26;34107;-80
2024/04/16 10:12:08;;;;;;;0.00;0.00;;;;;;;10.72;60.76;99065.22;5287113;26;32325;-85
2024/04/16 10:14:35;;;;;;;0.00;0.00;;;;;;;10.71;61.47;99066.16;5305334;26;33681;-86
2024/04/16 10:17:01;;;;;;;0.00;0.00;;;;;;;10.76;62.09;99060.62;5305156;26;34279;-86
2024/04/16 10:19:29;;;;;;;0.00;0.00;;;;;;;10.98;61.27;99044.41;5287157;26;32880;-86
2024/04/16 10:22:01;;;;;;;0.00;0.00;;;;;;;10.63;63.66;99047.25;5304662;26;34040;-86
2024/04/16 10:24:29;;;;;;;0.00;0.00;;;;;;;10.71;64.06;99044.19;5287238;26;33707;-86
2024/04/16 10:26:57;;;;;;;0.00;0.00;;;;;;;10.86;62.75;99053.03;5323488;26;34053;-86
2024/04/16 10:29:24;;;;;;;0.00;0.00;;;;;;;11.03;60.43;99039.72;5286828;26;33971;-86
2024/04/16 10:31:53;;;;;;;0.00;0.00;;;;;;;10.88;60.64;99056.44;5286970;26;32614;-86
2024/04/16 10:34:24;;;;;;;0.00;0.00;;;;;;;10.75;61.69;99048.34;5304647;26;32899;-86
2024/04/16 10:36:51;;;;;;;0.17;0.17;;;;;;;10.70;62.30;99048.63;5305238;26;34624;-86
2024/04/16 10:39:18;;;;;;;0.00;0.00;;;;;;;10.17;65.18;99046.28;5323610;26;34873;-86
2024/04/16 10:41:57;;;;;;;0.15;0.15;;;;;;;9.83;67.24;99044.59;5304810;26;33801;-86
2024/04/16 10:44:26;;;;;;;0.00;0.00;;;;;;;10.47;64.51;99038.50;5323469;26;33429;-86
2024/04/16 10:46:53;;;;;;;0.00;0.00;;;;;;;10.24;66.49;99034.47;5286638;26;33375;-86
2024/04/16 10:49:22;;;;;;;0.00;0.00;;;;;;;10.63;63.19;99031.41;5305207;26;33086;-86
2024/04/16 10:51:54;;;;;;;0.10;0.10;;;;;;;10.71;63.70;99036.25;5287934;26;33071;-86
2024/04/16 10:54:21;;;;;;;0.00;0.00;;;;;;;10.91;63.47;99035.13;5305624;26;32638;-86
2024/04/16 10:56:50;;;;;;;0.00;0.00;;;;;;;10.81;64.17;99034.81;5324166;26;33459;-86
2024/04/16 10:59:18;;;;;;;0.00;0.00;;;;;;;10.63;63.54;99034.03;5305852;26;32991;-86
2024/04/16 11:01:49;;;;;;;0.03;0.03;;;;;;;10.81;62.66;99040.09;5305847;26;34024;-85
2024/04/16 11:04:17;;;;;;;0.00;0.00;;;;;;;10.84;61.64;99034.63;5305884;26;33190;-86
2024/04/16 11:06:46;;;;;;;0.00;0.00;;;;;;;10.72;61.98;99045.88;5324210;26;33388;-86
2024/04/16 11:09:13;;;;;;;0.00;0.00;;;;;;;10.48;62.84;99046.31;5306157;26;34679;-86
2024/04/16 11:11:40;;;;;;;0.43;0.43;;;;;;;10.86;62.82;99048.59;5305766;26;33798;-86
2024/04/16 11:14:07;;;;;;;0.28;0.28;;;;;;;10.95;61.98;99042.78;5305561;26;33101;-85
2024/04/16 11:16:34;;;;;;;0.00;0.00;;;;;;;10.93;62.04;99039.41;5287588;26;33456;-86
2024/04/16 11:19:02;;;;;;;0.00;0.00;;;;;;;10.81;63.35;99058.56;5306082;26;34762;-85
2024/04/16 11:21:31;;;;;;;0.00;0.00;;;;;;;11.09;63.33;99055.22;5287804;26;33997;-85
2024/04/16 11:23:58;;;;;;;0.00;0.00;;;;;;;10.92;62.12;99064.13;5305828;26;32913;-86
2024/04/16 11:26:24;;;;;;;0.00;0.00;;;;;;;10.83;64.58;99067.28;5305927;26;33956;-86
2024/04/16 11:28:52;;;;;;;0.00;0.00;;;;;;;11.00;64.33;99076.88;5305952;26;33021;-86
2024/04/16 11:31:18;;;;;;;0.00;0.00;;;;;;;11.08;63.20;99065.88;5287210;26;34067;-85
2024/04/16 11:33:45;;;;;;;0.00;0.00;;;;;;;10.54;66.56;99066.25;5288224;26;32473;-86